createdAt,value
2023-05-25T00:01:44.183Z,101960.81
2023-05-25T00:04:17.567Z,101962.50
2023-05-25T00:06:47.406Z,101966.25
2023-05-25T00:09:15.456Z,101966.25
2023-05-25T00:11:43.504Z,101967.94
2023-05-25T00:14:13.203Z,101968.13
2023-05-25T00:16:41.302Z,101969.81
2023-05-25T00:19:10.655Z,101970.84
2023-05-25T00:21:39.215Z,101965.41
2023-05-25T00:24:07.635Z,101965.41
2023-05-25T00:26:35.978Z,101966.47
2023-05-25T00:29:04.451Z,101971.91
2023-05-25T00:31:35.495Z,101962.91
2023-05-25T00:34:04.125Z,101964.59
2023-05-25T00:36:32.114Z,101963.75
2023-05-25T00:39:00.148Z,101966.47
2023-05-25T00:41:28.274Z,101960.19
2023-05-25T00:43:56.746Z,101958.69
2023-05-25T00:46:24.744Z,101962.91
2023-05-25T00:48:55.427Z,101959.34
2023-05-25T00:51:23.610Z,101957.66
2023-05-25T00:53:51.867Z,101937.41
2023-05-25T00:56:21.458Z,101955.78
2023-05-25T00:58:49.596Z,101955.78
2023-05-25T01:01:17.652Z,101958.50
2023-05-25T01:03:46.857Z,101961.22
2023-05-25T01:06:17.085Z,101961.22
2023-05-25T01:08:48.547Z,101955.78
2023-05-25T01:11:17.298Z,101950.25
2023-05-25T01:13:45.248Z,101956.81
2023-05-25T01:16:13.289Z,101955.97
2023-05-25T01:18:41.981Z,101952.38
2023-05-25T01:21:14.180Z,101951.53
2023-05-25T01:23:44.356Z,101964.97
2023-05-25T01:26:15.047Z,101956.97
2023-05-25T01:28:46.528Z,101956.97
2023-05-25T01:31:14.885Z,101963.50
2023-05-25T01:33:43.495Z,101960.75
2023-05-25T01:36:13.106Z,101962.63
2023-05-25T01:38:41.082Z,101968.94
2023-05-25T01:41:09.018Z,101968.06
2023-05-25T01:46:15.896Z,101960.94
2023-05-25T01:48:48.721Z,101965.53
2023-05-25T01:51:20.566Z,101964.69
2023-05-25T01:53:52.156Z,101971.81
2023-05-25T01:56:20.221Z,101972.84
2023-05-25T01:58:48.484Z,101978.28
2023-05-25T02:01:17.082Z,101979.13
2023-05-25T02:03:45.327Z,101973.69
2023-05-25T02:06:13.327Z,101972.00
2023-05-25T02:08:43.900Z,101974.72
2023-05-25T02:11:13.677Z,101978.28
2023-05-25T02:13:41.679Z,101979.13
2023-05-25T02:16:09.962Z,101967.41
2023-05-25T02:18:37.911Z,101978.28
2023-05-25T02:21:05.851Z,101961.97
2023-05-25T02:23:33.845Z,101961.97
2023-05-25T02:26:03.245Z,101960.94
2023-05-25T02:28:31.200Z,101960.09
2023-05-25T02:30:59.229Z,101965.53
2023-05-25T02:33:27.619Z,101967.22
2023-05-25T02:35:55.687Z,101969.28
2023-05-25T02:38:23.629Z,101965.72
2023-05-25T02:40:51.606Z,101970.97
2023-05-25T02:43:21.270Z,101972.00
2023-05-25T02:45:49.255Z,101968.44
2023-05-25T02:48:17.284Z,101970.31
2023-05-25T02:50:45.360Z,101966.56
2023-05-25T02:53:13.566Z,101980.16
2023-05-25T02:55:43.480Z,101979.53
2023-05-25T02:58:11.852Z,101979.53
2023-05-25T03:00:42.889Z,101975.97
2023-05-25T03:03:11.309Z,101979.53
2023-05-25T03:05:39.319Z,101978.69
2023-05-25T03:08:07.403Z,101983.28
2023-05-25T03:10:35.347Z,101979.72
2023-05-25T03:13:03.580Z,101994.16
2023-05-25T03:15:31.561Z,101986.00
2023-05-25T03:18:01.466Z,101999.59
2023-05-25T03:20:29.854Z,101992.28
2023-05-25T03:22:58.254Z,101995.00
2023-05-25T03:25:26.346Z,101995.84
2023-05-25T03:27:54.405Z,101998.56
2023-05-25T03:30:23.131Z,102004.66
2023-05-25T03:32:52.564Z,102001.06
2023-05-25T03:37:50.070Z,101966.88
2023-05-25T03:40:18.073Z,102008.22
2023-05-25T03:42:46.576Z,102008.38
2023-05-25T03:45:14.550Z,101992.88
2023-05-25T03:47:42.589Z,102004.47
2023-05-25T03:50:11.410Z,102005.88
2023-05-25T03:52:39.724Z,102005.50
2023-05-25T03:55:09.769Z,102021.81
2023-05-25T03:57:37.715Z,102016.38
2023-05-25T04:00:08.640Z,102025.38
2023-05-25T04:02:37.015Z,102027.25
2023-05-25T04:05:05.331Z,102025.38
2023-05-25T04:07:33.298Z,102026.22
2023-05-25T04:10:01.349Z,102027.25
2023-05-25T04:12:32.472Z,102011.69
2023-05-25T04:15:00.457Z,102008.50
2023-05-25T04:17:28.870Z,102022.38
2023-05-25T04:19:57.452Z,102032.69
2023-05-25T04:22:25.725Z,102029.97
2023-05-25T04:24:53.727Z,102028.09
2023-05-25T04:27:22.235Z,102037.28
2023-05-25T04:29:51.591Z,102038.13
2023-05-25T04:32:19.846Z,102036.25
2023-05-25T04:34:48.261Z,102035.41
2023-05-25T04:37:17.233Z,102041.69
2023-05-25T04:39:45.444Z,101897.19
2023-05-25T04:42:13.419Z,102035.53
2023-05-25T04:44:41.364Z,102050.69
2023-05-25T04:47:10.818Z,102055.13
2023-05-25T04:49:38.786Z,102023.22
2023-05-25T04:52:07.566Z,102016.56
2023-05-25T04:54:36.090Z,102057.00
2023-05-25T04:57:04.205Z,102046.88
2023-05-25T04:59:34.950Z,102064.13
2023-05-25T05:02:02.917Z,102068.72
2023-05-25T05:04:32.237Z,102062.22
2023-05-25T05:07:00.247Z,102066.84
2023-05-25T05:09:28.500Z,102067.03
2023-05-25T05:11:56.417Z,102074.16
2023-05-25T05:14:24.701Z,102071.63
2023-05-25T05:16:52.749Z,102070.38
2023-05-25T05:19:21.076Z,102075.81
2023-05-25T05:21:50.550Z,102079.38
2023-05-25T05:24:18.628Z,102084.81
2023-05-25T05:26:57.332Z,102091.09
2023-05-25T05:29:28.682Z,102084.81
2023-05-25T05:31:56.811Z,102080.44
2023-05-25T05:34:24.899Z,102088.38
2023-05-25T05:36:58.118Z,102089.22
2023-05-25T05:39:27.207Z,102090.06
2023-05-25T05:41:55.274Z,102098.25
2023-05-25T05:44:25.980Z,102092.13
2023-05-25T05:47:00.273Z,102091.94
2023-05-25T05:49:29.225Z,102087.38
2023-05-25T05:51:58.625Z,102092.63
2023-05-25T05:54:27.939Z,102091.78
2023-05-25T05:56:56.091Z,102101.63
2023-05-25T05:59:24.365Z,102098.91
2023-05-25T06:01:52.398Z,102106.22
2023-05-25T06:04:20.548Z,102105.19
2023-05-25T06:06:48.532Z,102109.78
2023-05-25T06:09:18.968Z,102113.34
2023-05-25T06:11:46.973Z,102109.78
2023-05-25T06:14:14.941Z,102118.78
2023-05-25T06:16:44.128Z,102121.50
2023-05-25T06:19:12.300Z,102127.81
2023-05-25T06:21:40.223Z,102123.38
2023-05-25T06:24:09.283Z,102125.91
2023-05-25T06:26:38.625Z,102129.47
2023-05-25T06:29:06.941Z,102128.63
2023-05-25T06:31:35.013Z,102128.44
2023-05-25T06:34:02.983Z,102132.19
2023-05-25T06:36:32.106Z,102128.63
2023-05-25T06:39:00.604Z,102127.59
2023-05-25T06:41:28.624Z,102126.75
2023-05-25T06:43:57.983Z,102131.16
2023-05-25T06:46:26.080Z,102136.59
2023-05-25T06:48:54.361Z,102132.84
2023-05-25T06:51:22.285Z,102133.88
2023-05-25T06:53:50.292Z,102132.00
2023-05-25T06:56:18.260Z,102131.81
2023-05-25T06:58:46.531Z,102139.13
2023-05-25T07:01:14.489Z,102150.03
2023-05-25T07:03:44.177Z,102139.13
2023-05-25T07:06:12.924Z,102137.25
2023-05-25T07:08:40.893Z,102136.25
2023-05-25T07:11:10.693Z,102137.25
2023-05-25T07:13:38.622Z,102147.13
2023-05-25T07:16:06.941Z,102149.84
2023-05-25T07:18:35.238Z,102156.09
2023-05-25T07:21:04.612Z,102147.13
2023-05-25T07:23:32.620Z,102150.88
2023-05-25T07:26:00.626Z,102147.13
2023-05-25T07:28:28.838Z,102152.56
2023-05-25T07:30:56.835Z,102154.22
2023-05-25T07:33:24.724Z,102152.34
2023-05-25T07:35:52.882Z,102154.22
2023-05-25T07:38:22.542Z,102156.09
2023-05-25T07:40:52.490Z,102148.59
2023-05-25T07:43:20.482Z,102155.91
2023-05-25T07:45:48.440Z,102154.06
2023-05-25T07:48:16.728Z,102149.44
2023-05-25T07:50:44.713Z,102152.19
2023-05-25T07:53:12.704Z,102148.59
2023-05-25T07:55:42.143Z,102150.31
2023-05-25T07:58:10.146Z,102149.44
2023-05-25T08:00:38.163Z,102158.47
2023-05-25T08:03:06.308Z,102154.91
2023-05-25T08:05:34.329Z,102158.47
2023-05-25T08:08:02.476Z,102161.19
2023-05-25T08:10:32.477Z,102161.19
2023-05-25T08:13:01.932Z,102151.16
2023-05-25T08:15:29.861Z,102160.16
2023-05-25T08:17:58.008Z,102161.81
2023-05-25T08:20:26.614Z,102158.28
2023-05-25T08:22:54.731Z,102153.88
2023-05-25T08:25:22.749Z,102155.56
2023-05-25T08:27:50.738Z,102159.31
2023-05-25T08:30:20.465Z,102155.56
2023-05-25T08:32:48.568Z,102160.16
2023-05-25T08:37:54.261Z,102163.50
2023-05-25T08:40:24.960Z,102171.69
2023-05-25T08:42:53.219Z,102172.53
2023-05-25T08:45:34.316Z,102172.53
2023-05-25T08:48:12.553Z,102167.09
2023-05-25T08:50:42.082Z,102164.25
2023-05-25T08:53:11.783Z,102166.25
2023-05-25T08:55:39.803Z,102166.25
2023-05-25T08:58:11.232Z,102157.03
2023-05-25T09:00:44.043Z,102165.22
2023-05-25T09:03:13.055Z,102161.47
2023-05-25T09:05:41.113Z,102166.91
2023-05-25T09:08:09.710Z,102157.72
2023-05-25T09:10:39.237Z,102167.56
2023-05-25T09:13:20.249Z,102169.44
2023-05-25T09:15:50.663Z,102160.44
2023-05-25T09:18:19.036Z,102171.09
2023-05-25T09:20:47.856Z,102170.28
2023-05-25T09:23:16.332Z,102168.38
2023-05-25T09:25:44.438Z,102176.38
2023-05-25T09:30:43.734Z,102172.81
2023-05-25T09:33:13.639Z,102171.94
2023-05-25T09:35:41.626Z,102176.38
2023-05-25T09:38:10.157Z,102182.66
2023-05-25T09:40:39.023Z,102186.22
2023-05-25T09:43:06.970Z,102171.78
2023-05-25T09:45:41.410Z,102177.03
2023-05-25T09:48:09.678Z,102170.75
2023-05-25T09:50:39.416Z,102175.16
2023-05-25T09:53:07.355Z,102165.94
2023-05-25T09:55:51.605Z,102171.38
2023-05-25T09:58:21.651Z,102179.53
2023-05-25T10:00:49.652Z,102172.06
2023-05-25T10:03:17.614Z,102176.66
2023-05-25T10:05:46.994Z,102183.78
2023-05-25T10:08:15.224Z,102177.31
2023-05-25T10:10:43.417Z,102184.44
2023-05-25T10:13:11.908Z,102189.91
2023-05-25T10:15:40.190Z,102184.25
2023-05-25T10:18:08.591Z,102184.25
2023-05-25T10:20:36.620Z,102186.97
2023-05-25T10:23:09.630Z,102177.78
2023-05-25T10:25:39.426Z,102185.09
2023-05-25T10:28:09.594Z,102180.50
2023-05-25T10:30:37.972Z,102192.03
2023-05-25T10:33:06.011Z,102198.34
2023-05-25T10:38:10.658Z,102192.03
2023-05-25T10:40:38.674Z,102189.13
2023-05-25T10:43:06.693Z,102185.75
2023-05-25T10:45:35.332Z,102192.69
2023-05-25T10:48:03.426Z,102188.94
2023-05-25T10:50:33.371Z,102194.38
2023-05-25T10:53:02.131Z,102193.34
2023-05-25T10:55:42.914Z,102194.19
2023-05-25T10:58:12.388Z,102195.88
2023-05-25T11:00:40.704Z,102195.03
2023-05-25T11:03:08.886Z,102195.03
2023-05-25T11:05:39.943Z,102199.63
2023-05-25T11:08:09.220Z,102189.59
2023-05-25T11:10:56.777Z,102199.63
2023-05-25T11:13:45.135Z,102190.63
2023-05-25T11:16:24.556Z,102191.47
2023-05-25T11:18:54.369Z,102205.94
2023-05-25T11:21:43.897Z,102201.34
2023-05-25T11:24:16.132Z,102202.19
2023-05-25T11:26:58.973Z,102211.38
2023-05-25T11:29:27.203Z,102209.50
2023-05-25T11:31:56.086Z,102205.94
2023-05-25T11:34:25.990Z,102210.53
2023-05-25T11:36:57.761Z,102200.50
2023-05-25T11:39:25.722Z,102203.38
2023-05-25T11:41:55.860Z,102207.97
2023-05-25T11:44:33.643Z,102201.69
2023-05-25T11:47:03.191Z,102203.56
2023-05-25T11:49:31.129Z,102175.16
2023-05-25T11:51:59.099Z,102191.66
2023-05-25T11:54:27.815Z,102198.97
2023-05-25T11:56:58.981Z,102198.13
2023-05-25T11:59:30.718Z,102198.13
2023-05-25T12:02:00.612Z,102200.84
2023-05-25T12:04:29.001Z,102197.09
2023-05-25T12:07:03.450Z,102209.84
2023-05-25T12:09:31.389Z,102177.88
2023-05-25T12:11:59.325Z,102199.19
2023-05-25T12:14:28.745Z,102193.75
2023-05-25T12:16:56.758Z,102185.09
2023-05-25T12:19:25.003Z,102193.91
2023-05-25T12:21:53.196Z,102193.91
2023-05-25T12:24:21.166Z,102190.16
2023-05-25T12:26:49.364Z,102187.44
2023-05-25T12:29:17.648Z,102184.72
2023-05-25T12:31:46.999Z,102188.28
2023-05-25T12:34:15.488Z,102189.97
2023-05-25T12:36:45.506Z,102191.66
2023-05-25T12:39:14.374Z,102188.94
2023-05-25T12:41:51.283Z,102190.81
2023-05-25T12:44:25.528Z,102186.22
2023-05-25T12:46:55.493Z,102188.94
2023-05-25T12:49:27.941Z,102184.34
2023-05-25T12:51:56.003Z,102175.31
2023-05-25T12:54:41.008Z,102180.94
2023-05-25T12:57:10.056Z,102168.19
2023-05-25T12:59:38.252Z,102163.59
2023-05-25T13:02:08.364Z,102165.28
2023-05-25T13:04:37.108Z,102168.84
2023-05-25T13:07:05.191Z,102160.88
2023-05-25T13:09:33.837Z,102153.09
2023-05-25T13:12:03.292Z,102166.31
2023-05-25T13:14:31.284Z,102048.91
2023-05-25T13:16:59.333Z,102158.34
2023-05-25T13:19:28.951Z,102165.28
2023-05-25T13:21:56.907Z,102153.56
2023-05-25T13:24:24.917Z,102153.56
2023-05-25T13:26:52.892Z,102156.28
2023-05-25T13:29:21.143Z,102154.41
2023-05-25T13:31:49.138Z,102144.53
2023-05-25T13:34:17.703Z,102154.41
2023-05-25T13:36:47.455Z,102121.00
2023-05-25T13:39:15.461Z,102158.81
2023-05-25T13:41:43.914Z,102155.25
2023-05-25T13:44:14.552Z,102155.06
2023-05-25T13:46:43.871Z,102148.56
2023-05-25T13:49:13.391Z,102146.41
2023-05-25T13:51:41.454Z,102148.56
2023-05-25T13:54:12.838Z,102146.06
2023-05-25T13:56:42.461Z,102152.34
2023-05-25T13:59:10.583Z,102126.81
2023-05-25T14:01:38.662Z,102148.56
2023-05-25T14:04:06.656Z,102150.25
2023-05-25T14:06:36.159Z,102146.69
2023-05-25T14:09:04.178Z,102144.81
2023-05-25T14:11:33.536Z,102138.34
2023-05-25T14:14:01.537Z,102136.66
2023-05-25T14:16:29.533Z,102135.44
2023-05-25T14:18:57.651Z,102139.19
2023-05-25T14:21:25.743Z,102135.63
2023-05-25T14:23:53.744Z,102136.47
2023-05-25T14:26:22.047Z,102130.16
2023-05-25T14:28:51.736Z,102143.78
2023-05-25T14:31:19.808Z,102138.16
2023-05-25T14:33:47.800Z,102133.75
2023-05-25T14:36:15.904Z,102137.50
2023-05-25T14:38:44.236Z,102133.06
2023-05-25T14:41:12.204Z,102135.63
2023-05-25T14:43:40.138Z,102132.03
2023-05-25T14:46:10.563Z,102124.72
2023-05-25T14:48:38.888Z,102131.03
2023-05-25T14:51:06.959Z,102134.41
2023-05-25T14:53:34.935Z,102124.53
2023-05-25T14:56:03.771Z,102135.44
2023-05-25T14:58:32.845Z,102127.28
2023-05-25T15:01:00.906Z,102123.53
2023-05-25T15:03:30.392Z,102122.66
2023-05-25T15:05:58.461Z,102113.13
2023-05-25T15:08:26.780Z,102136.28
2023-05-25T15:10:54.764Z,102132.72
2023-05-25T15:13:22.858Z,102131.03
2023-05-25T15:15:52.124Z,102129.31
2023-05-25T15:18:20.408Z,102126.59
2023-05-25T15:20:49.881Z,102125.56
2023-05-25T15:23:19.211Z,102122.84
2023-05-25T15:25:47.253Z,102114.69
2023-05-25T15:28:15.560Z,102117.41
2023-05-25T15:30:43.559Z,102101.84
2023-05-25T15:33:11.563Z,102111.78
2023-05-25T15:35:39.561Z,102108.22
2023-05-25T15:38:09.280Z,102105.50
2023-05-25T15:40:37.833Z,102061.63
2023-05-25T15:43:05.764Z,102107.19
2023-05-25T15:45:33.702Z,102102.56
2023-05-25T15:48:01.977Z,102101.53
2023-05-25T15:50:29.993Z,102100.69
2023-05-25T15:52:57.991Z,102035.19
2023-05-25T15:55:27.905Z,102085.31
2023-05-25T15:57:55.874Z,102097.31
2023-05-25T16:00:29.049Z,102092.91
2023-05-25T16:02:58.277Z,102093.75
2023-05-25T16:05:26.262Z,102096.66
2023-05-25T16:07:54.197Z,102099.19
2023-05-25T16:10:22.133Z,102104.66
2023-05-25T16:12:51.525Z,102100.06
2023-05-25T16:15:19.711Z,102098.53
2023-05-25T16:17:48.038Z,102098.53
2023-05-25T16:20:16.284Z,102097.69
2023-05-25T16:22:44.260Z,102093.09
2023-05-25T16:25:12.270Z,102095.81
2023-05-25T16:27:40.520Z,102090.38
2023-05-25T16:30:13.507Z,102104.84
2023-05-25T16:32:41.751Z,102096.84
2023-05-25T16:35:10.199Z,102090.59
2023-05-25T16:37:38.152Z,102088.69
2023-05-25T16:40:07.077Z,102102.28
2023-05-25T16:42:35.030Z,102094.13
2023-05-25T16:45:03.056Z,102094.97
2023-05-25T16:47:32.791Z,102092.25
2023-05-25T16:50:00.957Z,102087.88
2023-05-25T16:52:28.973Z,102091.22
2023-05-25T16:54:59.116Z,102082.88
2023-05-25T16:57:27.665Z,102085.19
2023-05-25T16:59:55.808Z,102074.31
2023-05-25T17:02:23.884Z,102091.13
2023-05-25T17:04:53.332Z,102081.25
2023-05-25T17:07:21.750Z,102068.41
2023-05-25T17:09:49.742Z,102076.44
2023-05-25T17:12:17.721Z,102081.06
2023-05-25T17:14:45.713Z,102082.75
2023-05-25T17:17:14.689Z,102074.13
2023-05-25T17:19:42.640Z,102077.28
2023-05-25T17:22:11.982Z,102072.72
2023-05-25T17:24:39.915Z,102074.56
2023-05-25T17:27:07.818Z,102078.34
2023-05-25T17:29:35.783Z,102081.88
2023-05-25T17:32:03.793Z,102083.63
2023-05-25T17:34:31.859Z,102082.75
2023-05-25T17:36:59.872Z,102083.63
2023-05-25T17:39:29.516Z,102079.03
2023-05-25T17:41:58.040Z,102079.16
2023-05-25T17:44:26.902Z,102076.44
2023-05-25T17:46:55.267Z,102075.63
2023-05-25T17:49:23.594Z,102081.25
2023-05-25T17:51:51.606Z,102080.41
2023-05-25T17:54:25.427Z,102087.72
2023-05-25T17:56:54.937Z,102095.91
2023-05-25T17:59:23.257Z,102076.00
2023-05-25T18:01:51.332Z,102092.34
2023-05-25T18:04:20.065Z,102086.03
2023-05-25T18:06:49.814Z,102097.97
2023-05-25T18:09:17.838Z,102096.94
2023-05-25T18:11:46.113Z,102092.25
2023-05-25T18:14:15.548Z,102091.50
2023-05-25T18:16:44.838Z,102092.50
2023-05-25T18:19:15.340Z,102092.50
2023-05-25T18:21:43.291Z,102086.22
2023-05-25T18:24:11.218Z,102090.84
2023-05-25T18:26:41.640Z,102088.13
2023-05-25T18:29:09.761Z,102091.88
2023-05-25T18:31:40.452Z,102098.19
2023-05-25T18:34:08.483Z,102090.19
2023-05-25T18:36:36.415Z,102092.91
2023-05-25T18:39:05.298Z,102092.91
2023-05-25T18:41:33.369Z,102075.66
2023-05-25T18:44:01.310Z,102102.78
2023-05-25T18:46:29.590Z,102100.91
2023-05-25T18:48:59.368Z,102103.63
2023-05-25T18:51:27.396Z,102102.78
2023-05-25T18:53:55.399Z,102109.91
2023-05-25T18:56:23.711Z,102104.47
2023-05-25T18:58:54.711Z,102099.03
2023-05-25T19:01:22.750Z,102069.31
2023-05-25T19:03:50.826Z,102108.00
2023-05-25T19:06:20.316Z,102096.31
2023-05-25T19:08:51.243Z,102094.59
2023-05-25T19:11:22.287Z,102100.06
2023-05-25T19:13:50.256Z,102102.09
2023-05-25T19:16:18.392Z,102105.69
2023-05-25T19:18:47.108Z,102103.97
2023-05-25T19:21:15.050Z,102111.31
2023-05-25T19:23:44.971Z,102108.78
2023-05-25T19:26:12.903Z,102113.41
2023-05-25T19:28:41.148Z,102118.84
2023-05-25T19:31:09.229Z,102124.28
2023-05-25T19:33:37.334Z,102088.38
2023-05-25T19:36:05.594Z,102126.16
2023-05-25T19:38:41.211Z,102119.19
2023-05-25T19:41:13.479Z,102129.72
2023-05-25T19:43:41.479Z,102130.56
2023-05-25T19:46:09.566Z,102098.03
2023-05-25T19:48:39.728Z,102129.72
2023-05-25T19:51:07.749Z,102131.59
2023-05-25T19:53:35.742Z,102132.44
2023-05-25T19:56:03.890Z,102135.34
2023-05-25T19:58:42.589Z,102130.28
2023-05-25T20:01:10.757Z,102139.09
2023-05-25T20:03:38.794Z,102134.50
2023-05-25T20:06:06.994Z,102137.22
2023-05-25T20:08:36.749Z,102135.34
2023-05-25T20:11:04.752Z,102137.88
2023-05-25T20:13:32.762Z,102145.84
2023-05-25T20:16:02.364Z,102148.38
2023-05-25T20:18:30.776Z,102148.38
2023-05-25T20:20:58.776Z,102142.75
2023-05-25T20:23:26.825Z,102146.09
2023-05-25T20:25:55.141Z,102145.94
2023-05-25T20:28:23.135Z,102153.25
2023-05-25T20:30:51.092Z,102155.97
2023-05-25T20:33:21.331Z,102149.91
2023-05-25T20:35:49.311Z,102145.47
2023-05-25T20:38:17.694Z,102145.66
2023-05-25T20:40:45.636Z,102141.25
2023-05-25T20:43:13.638Z,102140.41
2023-05-25T20:45:41.650Z,102149.63
2023-05-25T20:48:10.149Z,102149.63
2023-05-25T20:50:39.520Z,102148.28
2023-05-25T20:53:07.537Z,102157.13
2023-05-25T20:55:35.472Z,102156.28
2023-05-25T20:58:03.795Z,102167.16
2023-05-25T21:00:31.759Z,102165.47
2023-05-25T21:02:59.775Z,102166.31
2023-05-25T21:05:27.965Z,102164.63
2023-05-25T21:07:57.324Z,102152.81
2023-05-25T21:10:25.317Z,102167.56
2023-05-25T21:12:53.294Z,102173.84
2023-05-25T21:15:21.283Z,102165.00
2023-05-25T21:17:49.560Z,102175.06
2023-05-25T21:20:17.903Z,102171.47
2023-05-25T21:22:45.920Z,102169.78
2023-05-25T21:25:15.230Z,102175.22
2023-05-25T21:27:43.545Z,102128.63
2023-05-25T21:30:12.285Z,102172.50
2023-05-25T21:32:40.391Z,102181.53
2023-05-25T21:35:08.452Z,102173.56
2023-05-25T21:37:36.698Z,102178.16
2023-05-25T21:40:04.772Z,102188.84
2023-05-25T21:42:34.178Z,102177.31
2023-05-25T21:45:02.189Z,102187.19
2023-05-25T21:47:30.442Z,102177.31
2023-05-25T21:49:58.402Z,102191.78
2023-05-25T21:52:26.338Z,102190.06
2023-05-25T21:54:54.269Z,102187.34
2023-05-25T21:57:22.539Z,102184.53
2023-05-25T21:59:51.907Z,102191.94
2023-05-25T22:02:19.905Z,102188.38
2023-05-25T22:04:47.946Z,102196.53
2023-05-25T22:07:16.185Z,102198.41
2023-05-25T22:09:44.119Z,102194.84
2023-05-25T22:12:12.190Z,102198.41
2023-05-25T22:14:40.177Z,102190.25
2023-05-25T22:17:09.933Z,102189.41
2023-05-25T22:19:38.007Z,102202.00
2023-05-25T22:22:06.162Z,102204.72
2023-05-25T22:24:34.088Z,102202.00
2023-05-25T22:27:03.096Z,102206.59
2023-05-25T22:29:31.296Z,102209.31
2023-05-25T22:31:59.271Z,102213.91
2023-05-25T22:34:28.692Z,102213.06
2023-05-25T22:36:56.659Z,102213.06
2023-05-25T22:39:24.889Z,102217.66
2023-05-25T22:41:52.961Z,102228.53
2023-05-25T22:44:20.904Z,102218.50
2023-05-25T22:46:49.014Z,102218.69
2023-05-25T22:49:17.401Z,102226.88
2023-05-25T22:51:46.686Z,102232.31
2023-05-25T22:54:14.609Z,102234.19
2023-05-25T22:56:42.555Z,102236.91
2023-05-25T22:59:10.806Z,102240.47
2023-05-25T23:01:38.861Z,102242.34
2023-05-25T23:04:07.030Z,102241.31
2023-05-25T23:06:35.191Z,102234.19
2023-05-25T23:09:04.893Z,102236.91
2023-05-25T23:11:32.945Z,102214.47
2023-05-25T23:14:01.701Z,102233.34
2023-05-25T23:16:29.715Z,102233.34
2023-05-25T23:18:58.120Z,102230.34
2023-05-25T23:21:26.108Z,102225.44
2023-05-25T23:23:54.077Z,102237.06
2023-05-25T23:26:23.422Z,102229.47
2023-05-25T23:28:51.697Z,102229.94
2023-05-25T23:31:19.729Z,102212.78
2023-05-25T23:33:47.746Z,102225.25
2023-05-25T23:36:15.760Z,102242.69
2023-05-25T23:38:43.690Z,102236.41
2023-05-25T23:41:11.666Z,102237.47
2023-05-25T23:43:41.277Z,102234.75
2023-05-25T23:46:09.232Z,102241.03
2023-05-25T23:48:37.256Z,102241.03
2023-05-25T23:51:07.433Z,102242.91
2023-05-25T23:53:35.643Z,102243.75
2023-05-25T23:56:03.828Z,102231.34
2023-05-25T23:58:31.800Z,102238.50
